KMHV/MHV METAR and TAF weather

Enter ICAO airport designator
Station Type Date Time Source
KMHV METAR 2022/01/25 05:40 UTC NOAA

KMHV 250540Z AUTO 30006KT 10SM CLR 06/M13 A3000 RMK A01


Station Type Date Time Source
KMHV Decoded METAR 2022/01/25 05:40 UTC NOAA

Mojave, CA, United States (KMHV) 35-04N 118-09W
Jan 25, 2022 - 12:40 AM EST / 2022.01.25 0540 UTC
Wind: from the WNW (300 degrees) at 7 MPH (6 KT):0
Visibility: 10 mile(s):0
Sky conditions: clear
Temperature: 42 F (6 C)
Dew Point: 8 F (-13 C)
Relative Humidity: 24%
Pressure (altimeter): 30 in. Hg (1015 hPa)
ob: KMHV 250540Z AUTO 30006KT 10SM CLR 06/M13 A3000 RMK A01
cycle: 5

Station Type Date Time Source
KMHV TAF UTC NOAA

Error!

Example: see airport list